Time;durP1;ratioP1;P1;durP2;ratioP2;P2;SDS_P1;SDS_P2;PMS_P1;PMS_P2;Temp;Humidity;BMP_temperature;BMP_pressure;BME280_temperature;BME280_humidity;BME280_pressure;Samples;Min_cycle;Max_cycle;Signal;HPM_P1;HPM_P2
2022/06/27 00:00:11;;;;;;;3.03;0.45;;;13.70;99.90;;;;;;5013224;28;20018;-71
2022/06/27 00:02:39;;;;;;;2.50;0.52;;;13.80;99.90;;;;;;5013149;28;20049;-72
2022/06/27 00:05:07;;;;;;;6.95;0.40;;;13.90;99.90;;;;;;5011707;28;20394;-71
2022/06/27 00:07:34;;;;;;;2.95;0.50;;;13.90;99.90;;;;;;5013025;28;20022;-71
2022/06/27 00:10:02;;;;;;;1.60;0.73;;;13.90;99.90;;;;;;5012999;28;20076;-70
2022/06/27 00:12:32;;;;;;;2.88;0.60;;;13.80;99.90;;;;;;5013085;28;20117;-72
2022/06/27 00:15:00;;;;;;;1.77;0.60;;;13.80;99.90;;;;;;5013061;28;20068;-72
2022/06/27 00:17:27;;;;;;;3.53;1.02;;;14.00;99.90;;;;;;5011805;28;20498;-72
2022/06/27 00:19:55;;;;;;;3.30;0.63;;;14.20;99.90;;;;;;5011547;28;20026;-72
2022/06/27 00:22:22;;;;;;;1.92;0.38;;;14.40;99.90;;;;;;5013013;28;20084;-72
2022/06/27 00:24:50;;;;;;;2.17;0.90;;;14.40;99.90;;;;;;5012956;28;20410;-73
2022/06/27 00:27:17;;;;;;;3.42;0.70;;;14.40;99.90;;;;;;5013073;28;20036;-73
2022/06/27 00:29:45;;;;;;;1.45;0.50;;;14.30;99.90;;;;;;5013131;28;20109;-73
2022/06/27 00:32:12;;;;;;;5.55;0.60;;;14.40;99.90;;;;;;5012800;28;20187;-73
2022/06/27 00:34:40;;;;;;;5.30;0.80;;;14.50;99.90;;;;;;5011573;28;20022;-72
2022/06/27 00:37:08;;;;;;;2.67;0.70;;;14.60;99.90;;;;;;5012859;28;20061;-73
2022/06/27 00:39:35;;;;;;;2.80;0.70;;;14.70;99.90;;;;;;5012834;28;20021;-72
2022/06/27 00:42:03;;;;;;;2.67;0.95;;;14.60;99.90;;;;;;5012864;28;20026;-72
2022/06/27 00:44:42;;;;;;;4.75;0.70;;;14.70;99.90;;;;;;5012888;28;20030;-72
2022/06/27 00:47:12;;;;;;;2.00;0.90;;;14.80;99.90;;;;;;5012750;28;20096;-72
2022/06/27 00:49:39;;;;;;;4.90;0.70;;;14.90;99.90;;;;;;5012790;28;20022;-71
2022/06/27 00:52:12;;;;;;;3.22;0.80;;;14.90;99.90;;;;;;5012714;28;20030;-72
2022/06/27 00:54:42;;;;;;;3.05;0.85;;;15.00;99.90;;;;;;5013136;28;20030;-72
2022/06/27 00:57:12;;;;;;;2.65;0.63;;;14.90;99.90;;;;;;5012783;28;20018;-72
2022/06/27 00:59:40;;;;;;;4.70;1.00;;;15.00;99.90;;;;;;5544429;23;20489;-67
2022/06/27 01:02:08;;;;;;;2.03;0.80;;;15.30;99.90;;;;;;5013272;28;20057;-68
2022/06/27 01:04:36;;;;;;;6.75;1.33;;;15.10;99.90;;;;;;5012649;28;20026;-68
2022/06/27 01:07:06;;;;;;;3.10;0.75;;;15.30;99.90;;;;;;5012746;28;20108;-68
2022/06/27 01:09:34;;;;;;;3.92;0.80;;;15.50;99.90;;;;;;5011514;28;20382;-68
2022/06/27 01:12:02;;;;;;;3.35;0.82;;;15.50;99.90;;;;;;5013442;28;20041;-67
2022/06/27 01:14:30;;;;;;;6.53;1.00;;;15.70;99.90;;;;;;5016140;28;20529;-68
2022/06/27 01:16:59;;;;;;;4.82;0.82;;;15.80;99.90;;;;;;5016276;28;20103;-67
2022/06/27 01:19:26;;;;;;;5.10;1.00;;;15.60;99.90;;;;;;5016107;28;20474;-66
2022/06/27 01:21:55;;;;;;;4.13;0.73;;;15.50;99.90;;;;;;5014802;28;20076;-67
2022/06/27 01:24:25;;;;;;;5.22;1.13;;;15.50;99.90;;;;;;5016144;28;20053;-68
2022/06/27 01:26:53;;;;;;;3.03;0.90;;;15.20;99.90;;;;;;5014739;28;20026;-68
2022/06/27 01:29:21;;;;;;;5.30;1.02;;;15.30;99.90;;;;;;5016178;28;20053;-68
2022/06/27 01:31:49;;;;;;;3.15;0.82;;;15.20;99.90;;;;;;5015882;28;20034;-67
2022/06/27 01:34:17;;;;;;;8.32;1.67;;;15.00;99.90;;;;;;5015920;28;20018;-67
2022/06/27 01:36:46;;;;;;;3.95;0.82;;;14.80;99.90;;;;;;5015886;28;20036;-65
2022/06/27 01:39:21;;;;;;;6.63;1.00;;;14.70;99.90;;;;;;5015954;28;20025;-67
2022/06/27 01:41:51;;;;;;;4.30;1.05;;;15.10;99.90;;;;;;5015836;28;20105;-69
2022/06/27 01:44:21;;;;;;;5.88;1.60;;;15.40;99.90;;;;;;5014499;28;20025;-68
2022/06/27 01:46:53;;;;;;;4.38;1.25;;;15.50;99.90;;;;;;5015852;28;20080;-67
2022/06/27 01:49:21;;;;;;;7.75;1.55;;;15.50;99.90;;;;;;5016252;28;20375;-67
2022/06/27 01:51:51;;;;;;;4.40;1.17;;;15.70;99.90;;;;;;5015575;28;20473;-68
2022/06/27 01:54:20;;;;;;;5.00;1.50;;;15.90;99.90;;;;;;5014369;28;20026;-68
2022/06/27 01:56:51;;;;;;;8.13;1.50;;;15.70;99.90;;;;;;5015628;28;20026;-68
2022/06/27 01:59:23;;;;;;;5.65;1.35;;;15.60;99.90;;;;;;5015557;28;20018;-68
2022/06/27 02:01:50;;;;;;;6.53;1.65;;;15.30;99.90;;;;;;4995747;28;20042;-68
2022/06/27 02:04:18;;;;;;;8.65;1.58;;;15.20;99.90;;;;;;4994532;28;20061;-68
2022/06/27 02:06:47;;;;;;;6.90;1.38;;;15.10;99.90;;;;;;4995712;28;20161;-67
2022/06/27 02:09:17;;;;;;;6.70;1.58;;;15.20;99.90;;;;;;4995754;28;20026;-68
2022/06/27 02:11:47;;;;;;;8.13;1.67;;;15.10;99.90;;;;;;4995609;28;20509;-69
2022/06/27 02:14:14;;;;;;;7.47;1.73;;;15.20;99.90;;;;;;4995769;28;20028;-68
2022/06/27 02:16:43;;;;;;;5.22;1.10;;;15.20;99.90;;;;;;4995536;28;20038;-68
2022/06/27 02:19:15;;;;;;;7.40;1.33;;;15.20;99.90;;;;;;4995564;28;20014;-69
2022/06/27 02:21:43;;;;;;;4.40;1.33;;;15.10;99.90;;;;;;4995529;28;20027;-70
2022/06/27 02:24:14;;;;;;;5.22;1.20;;;15.10;99.90;;;;;;4994601;28;20109;-69
2022/06/27 02:26:42;;;;;;;6.47;1.45;;;15.10;99.90;;;;;;4995484;28;20486;-68
2022/06/27 02:29:10;;;;;;;5.43;1.40;;;15.00;99.90;;;;;;4995721;28;20054;-68
2022/06/27 02:31:48;;;;;;;8.30;1.48;;;15.10;99.90;;;;;;4995225;28;20434;-68
2022/06/27 02:34:16;;;;;;;6.03;1.50;;;15.20;99.90;;;;;;4994024;28;20022;-68
2022/06/27 02:36:46;;;;;;;8.70;1.75;;;15.10;99.90;;;;;;4995227;28;20109;-68
2022/06/27 02:39:19;;;;;;;7.53;1.60;;;15.10;99.90;;;;;;4995167;28;20057;-68
2022/06/27 02:41:48;;;;;;;5.60;1.63;;;15.00;99.90;;;;;;4993789;28;20041;-68
2022/06/27 02:44:15;;;;;;;8.35;1.63;;;14.90;99.90;;;;;;4995081;28;20108;-68
2022/06/27 02:46:43;;;;;;;5.13;1.80;;;14.90;99.90;;;;;;4995029;28;20105;-67
2022/06/27 02:49:11;;;;;;;8.70;2.65;;;14.70;99.90;;;;;;4993652;28;20460;-67
2022/06/27 02:51:50;;;;;;;6.35;1.77;;;14.60;99.90;;;;;;4994904;28;20029;-67
2022/06/27 02:54:23;;;;;;;9.52;1.83;;;14.70;99.90;;;;;;4995172;28;20554;-68
2022/06/27 02:56:57;;;;;;;7.30;1.55;;;14.70;99.90;;;;;;4995190;28;20109;-69
2022/06/27 02:59:28;;;;;;;5.85;1.45;;;14.60;99.90;;;;;;4994762;28;20042;-68
2022/06/27 03:01:56;;;;;;;;;;;14.60;99.90;;;;;;4993779;28;20070;-68
2022/06/27 03:04:23;;;;;;;7.78;1.77;;;14.60;99.90;;;;;;4994786;28;19905;-67
2022/06/27 03:06:51;;;;;;;5.45;1.20;;;14.70;99.90;;;;;;4994712;28;20033;-68
2022/06/27 03:09:19;;;;;;;5.35;1.45;;;14.60;99.90;;;;;;4994651;28;20547;-66
2022/06/27 03:11:49;;;;;;;6.18;1.63;;;14.60;99.90;;;;;;4994554;28;20038;-68
2022/06/27 03:14:17;;;;;;;10.25;1.92;;;14.80;99.90;;;;;;4994709;28;20042;-68
2022/06/27 03:16:44;;;;;;;4.60;1.20;;;14.90;99.90;;;;;;4994503;28;20109;-69
2022/06/27 03:19:12;;;;;;;4.53;1.67;;;14.90;99.90;;;;;;4994398;28;20149;-68
2022/06/27 03:21:40;;;;;;;4.85;1.55;;;15.10;99.90;;;;;;4994449;28;20026;-68
2022/06/27 03:24:08;;;;;;;2.83;1.30;;;14.90;99.90;;;;;;4992910;28;20030;-68
2022/06/27 03:26:36;;;;;;;6.70;1.63;;;14.80;99.90;;;;;;4994232;28;20034;-68
2022/06/27 03:29:03;;;;;;;3.22;0.80;;;15.20;99.90;;;;;;4994212;28;20030;-68
2022/06/27 03:31:31;;;;;;;3.88;1.00;;;15.40;99.90;;;;;;4994128;28;20099;-68
2022/06/27 03:33:58;;;;;;;2.55;1.00;;;15.50;99.90;;;;;;4993817;28;20022;-68
2022/06/27 03:36:26;;;;;;;6.00;1.13;;;15.40;99.90;;;;;;4992765;28;20073;-68
2022/06/27 03:38:53;;;;;;;6.40;1.35;;;15.40;99.90;;;;;;4992702;28;20033;-68
2022/06/27 03:41:21;;;;;;;2.05;0.73;;;15.60;99.90;;;;;;4994114;28;20025;-68
2022/06/27 03:43:48;;;;;;;3.40;1.20;;;15.80;99.90;;;;;;4993961;28;20034;-68
2022/06/27 03:46:16;;;;;;;4.25;0.98;;;16.00;99.90;;;;;;4992633;28;20033;-68
2022/06/27 03:51:28;;;;;;;3.00;1.05;;;15.80;99.90;;;;;;4993932;28;20072;-68
2022/06/27 03:53:55;;;;;;;3.55;0.88;;;15.70;99.90;;;;;;4993921;28;20026;-68
2022/06/27 03:56:23;;;;;;;2.85;0.95;;;15.50;99.90;;;;;;4994065;28;20073;-68
2022/06/27 03:58:50;;;;;;;3.33;1.15;;;15.30;99.90;;;;;;4993658;28;20389;-68
2022/06/27 04:01:17;;;;;;;2.78;1.10;;;15.30;99.90;;;;;;4992921;28;20046;-68
2022/06/27 04:03:45;;;;;;;5.43;1.00;;;15.30;99.90;;;;;;4993305;28;20479;-67
2022/06/27 04:06:13;;;;;;;3.60;0.90;;;15.30;99.90;;;;;;4993033;28;20030;-67
2022/06/27 04:08:40;;;;;;;4.20;1.13;;;15.00;99.90;;;;;;4992737;28;20380;-68
2022/06/27 04:11:07;;;;;;;2.03;1.13;;;14.90;99.90;;;;;;4992751;28;20403;-68
2022/06/27 04:13:35;;;;;;;3.38;1.15;;;14.80;99.90;;;;;;4992809;28;20025;-68
2022/06/27 04:16:02;;;;;;;4.32;0.98;;;15.00;99.90;;;;;;4992753;28;20048;-68
2022/06/27 04:18:30;;;;;;;4.20;1.20;;;15.10;99.90;;;;;;4992807;28;20044;-68
2022/06/27 04:20:57;;;;;;;3.38;1.10;;;15.10;99.90;;;;;;4992651;28;20022;-68
2022/06/27 04:23:24;;;;;;;4.07;1.23;;;15.10;99.90;;;;;;4992709;28;20030;-68
2022/06/27 04:25:53;;;;;;;4.10;1.10;;;15.10;99.90;;;;;;4992720;28;20478;-69
2022/06/27 04:28:20;;;;;;;3.00;1.10;;;15.10;99.90;;;;;;4992654;28;20029;-68
2022/06/27 04:30:48;;;;;;;3.83;1.20;;;15.10;99.90;;;;;;4992521;28;20022;-69
2022/06/27 04:33:16;;;;;;;4.13;1.20;;;14.90;99.90;;;;;;4992942;28;20110;-68
2022/06/27 04:35:46;;;;;;;7.75;1.75;;;14.70;99.90;;;;;;4992491;28;20053;-69
2022/06/27 04:38:14;;;;;;;5.38;1.90;;;14.70;99.90;;;;;;4992508;28;20015;-69
2022/06/27 04:40:41;;;;;;;3.08;1.00;;;14.60;99.90;;;;;;4992398;28;20030;-69
2022/06/27 04:43:09;;;;;;;3.08;1.15;;;14.60;99.90;;;;;;4991112;28;20073;-69
2022/06/27 04:45:37;;;;;;;4.75;1.20;;;14.70;99.90;;;;;;4993155;28;20102;-69
2022/06/27 04:48:09;;;;;;;5.15;1.33;;;14.70;99.90;;;;;;4994545;28;20050;-68
2022/06/27 04:50:38;;;;;;;4.95;1.30;;;14.60;99.90;;;;;;4995788;28;20102;-69
2022/06/27 04:53:05;;;;;;;6.93;1.65;;;14.40;99.90;;;;;;4995811;28;20139;-68
2022/06/27 04:55:33;;;;;;;5.57;2.05;;;14.40;99.90;;;;;;4995761;28;20018;-69
2022/06/27 04:58:00;;;;;;;4.85;1.15;;;14.50;99.90;;;;;;4995746;28;20033;-68
2022/06/27 05:00:28;;;;;;;5.25;1.10;;;14.50;99.90;;;;;;4897468;28;2851612;-66
2022/06/27 05:02:55;;;;;;;4.45;1.30;;;14.40;99.90;;;;;;4995459;28;20041;-67
2022/06/27 05:05:23;;;;;;;5.78;1.20;;;14.20;99.90;;;;;;4996742;28;20080;-67
2022/06/27 05:07:51;;;;;;;6.97;1.48;;;14.10;99.90;;;;;;4996736;28;20057;-67
2022/06/27 05:10:19;;;;;;;8.90;1.77;;;14.10;99.90;;;;;;4996823;28;20042;-67
2022/06/27 05:12:46;;;;;;;4.68;1.10;;;14.00;99.90;;;;;;4996539;28;20486;-68
2022/06/27 05:15:14;;;;;;;4.93;1.27;;;13.80;99.90;;;;;;4996611;28;20023;-67
2022/06/27 05:17:43;;;;;;;3.60;1.27;;;13.80;99.90;;;;;;4995087;28;20367;-67
2022/06/27 05:20:11;;;;;;;5.93;1.20;;;13.80;99.90;;;;;;4996500;28;20022;-68
2022/06/27 05:22:40;;;;;;;3.72;1.50;;;13.80;99.90;;;;;;4995077;28;20023;-67
2022/06/27 05:25:07;;;;;;;2.85;1.13;;;13.80;99.90;;;;;;4996447;28;20023;-67
2022/06/27 05:27:35;;;;;;;4.60;1.40;;;13.80;99.90;;;;;;4994943;28;20054;-67
2022/06/27 05:30:05;;;;;;;5.15;1.48;;;13.80;99.90;;;;;;4994912;28;20117;-67
2022/06/27 05:32:33;;;;;;;2.95;0.90;;;13.90;99.90;;;;;;4994779;28;20030;-68
2022/06/27 05:35:00;;;;;;;7.70;1.27;;;14.00;99.90;;;;;;4996361;28;20030;-68
2022/06/27 05:37:27;;;;;;;6.78;1.27;;;14.00;99.90;;;;;;4996177;28;20427;-68
2022/06/27 05:39:55;;;;;;;5.68;1.13;;;14.00;99.90;;;;;;4996220;28;20441;-68
2022/06/27 05:42:22;;;;;;;3.83;1.10;;;14.00;99.90;;;;;;4995984;28;20054;-68
2022/06/27 05:44:49;;;;;;;6.05;1.10;;;13.90;99.90;;;;;;4996153;28;20034;-68
2022/06/27 05:47:17;;;;;;;4.85;1.30;;;13.90;99.90;;;;;;4995950;28;20030;-68
2022/06/27 05:49:45;;;;;;;7.30;1.25;;;13.80;99.90;;;;;;4996007;28;20053;-68
2022/06/27 05:52:12;;;;;;;5.03;0.85;;;13.80;99.90;;;;;;4994429;28;20142;-68
2022/06/27 05:54:40;;;;;;;8.00;1.10;;;13.80;99.90;;;;;;4994576;28;20460;-68
2022/06/27 05:57:07;;;;;;;4.95;1.27;;;13.70;99.90;;;;;;4995613;28;20030;-68
2022/06/27 05:59:35;;;;;;;10.18;1.27;;;13.70;99.90;;;;;;4995509;28;20022;-66
2022/06/27 06:02:03;;;;;;;6.15;1.30;;;13.60;99.90;;;;;;4995866;28;20455;-66
2022/06/27 06:04:31;;;;;;;6.35;1.30;;;13.50;99.90;;;;;;4994274;28;20057;-67
2022/06/27 06:06:59;;;;;;;2.83;1.00;;;13.40;99.90;;;;;;4995542;28;20038;-69
2022/06/27 06:09:27;;;;;;;6.15;1.23;;;13.30;99.90;;;;;;4995540;28;20026;-68
2022/06/27 06:11:55;;;;;;;7.45;1.55;;;13.30;99.90;;;;;;4995464;28;20031;-69
2022/06/27 06:14:23;;;;;;;6.40;1.67;;;13.20;99.90;;;;;;4995488;28;20033;-68
2022/06/27 06:16:51;;;;;;;5.30;1.75;;;13.20;99.90;;;;;;4995466;28;20019;-70
2022/06/27 06:19:19;;;;;;;5.88;1.20;;;13.10;99.90;;;;;;4994012;28;20428;-68
2022/06/27 06:21:47;;;;;;;4.07;1.08;;;13.20;99.90;;;;;;4995341;28;20030;-68
2022/06/27 06:24:14;;;;;;;5.03;0.98;;;13.10;99.90;;;;;;4995127;28;20045;-68
2022/06/27 06:26:42;;;;;;;6.88;1.42;;;13.10;99.90;;;;;;4995335;28;20142;-68
2022/06/27 06:29:15;;;;;;;4.70;0.98;;;13.00;99.90;;;;;;4993807;28;20030;-68
2022/06/27 06:31:46;;;;;;;4.97;0.85;;;13.00;99.90;;;;;;4995088;28;20105;-68
2022/06/27 06:34:15;;;;;;;5.68;1.40;;;13.00;99.90;;;;;;4995495;28;20320;-68
2022/06/27 06:36:44;;;;;;;5.70;1.23;;;12.90;99.90;;;;;;4995261;28;20053;-67
2022/06/27 06:39:12;;;;;;;5.15;1.42;;;12.90;99.90;;;;;;4995059;28;20022;-67
2022/06/27 06:41:40;;;;;;;6.05;1.23;;;12.90;99.90;;;;;;4995120;28;20130;-68
2022/06/27 06:44:09;;;;;;;7.40;1.48;;;12.80;99.90;;;;;;4994817;28;20019;-68
2022/06/27 06:46:36;;;;;;;3.70;0.63;;;12.80;99.90;;;;;;4993475;28;20034;-68
2022/06/27 06:49:09;;;;;;;5.40;1.02;;;12.70;99.90;;;;;;4994693;28;20114;-68
2022/06/27 06:51:39;;;;;;;7.93;1.30;;;12.70;99.90;;;;;;4994589;28;20030;-67
2022/06/27 06:54:12;;;;;;;7.45;0.98;;;12.50;99.90;;;;;;4994900;28;20064;-68
2022/06/27 06:56:40;;;;;;;7.13;1.17;;;12.50;99.90;;;;;;4993320;28;20125;-67
2022/06/27 06:59:08;;;;;;;6.13;1.50;;;12.40;99.90;;;;;;4994687;28;20053;-67
2022/06/27 07:01:37;;;;;;;4.95;1.23;;;12.30;99.90;;;;;;4994317;28;20510;-67
2022/06/27 07:04:04;;;;;;;4.18;1.00;;;12.40;99.90;;;;;;4994465;28;20390;-67
2022/06/27 07:06:32;;;;;;;4.63;1.48;;;12.40;99.90;;;;;;4994485;28;20019;-67
2022/06/27 07:09:00;;;;;;;4.22;1.45;;;12.30;99.90;;;;;;4993695;28;20030;-67
2022/06/27 07:11:32;;;;;;;6.65;1.65;;;12.20;99.90;;;;;;4994402;28;20064;-67
2022/06/27 07:14:00;;;;;;;6.03;1.38;;;12.10;99.90;;;;;;4994278;28;20018;-67
2022/06/27 07:16:28;;;;;;;5.40;1.50;;;12.20;99.90;;;;;;4993078;28;20026;-67
2022/06/27 07:18:56;;;;;;;5.55;1.48;;;12.20;99.90;;;;;;4994184;28;20080;-67
2022/06/27 07:21:28;;;;;;;4.68;1.55;;;12.10;99.90;;;;;;4994052;28;20487;-68
2022/06/27 07:23:56;;;;;;;12.68;1.70;;;12.00;99.90;;;;;;4994380;28;20076;-69
2022/06/27 07:26:27;;;;;;;6.93;1.85;;;12.00;99.90;;;;;;4994364;28;20034;-70
2022/06/27 07:28:55;;;;;;;4.00;1.60;;;12.00;99.90;;;;;;4994238;28;20029;-68
2022/06/27 07:31:23;;;;;;;4.55;1.55;;;12.10;99.90;;;;;;4994108;28;20030;-69
2022/06/27 07:33:54;;;;;;;4.90;1.40;;;12.10;99.90;;;;;;4993998;28;20030;-68
2022/06/27 07:36:25;;;;;;;6.72;1.17;;;12.10;99.90;;;;;;4994150;28;20029;-69
2022/06/27 07:38:54;;;;;;;3.22;1.10;;;12.10;99.90;;;;;;4993959;28;20022;-68
2022/06/27 07:41:24;;;;;;;4.10;1.23;;;12.00;99.90;;;;;;4994000;28;20364;-68
2022/06/27 07:43:54;;;;;;;3.53;0.70;;;12.00;99.90;;;;;;4993861;28;20033;-69
2022/06/27 07:46:22;;;;;;;3.63;1.02;;;12.00;99.90;;;;;;4992497;28;20036;-69
2022/06/27 07:48:50;;;;;;;3.67;0.90;;;12.00;99.90;;;;;;4992484;28;20042;-69
2022/06/27 07:51:19;;;;;;;4.32;1.00;;;12.00;99.90;;;;;;4992407;28;20041;-69
2022/06/27 07:53:48;;;;;;;3.20;0.98;;;12.00;99.90;;;;;;4993775;28;20018;-69
2022/06/27 07:56:17;;;;;;;4.82;1.10;;;12.00;99.90;;;;;;4993809;28;20391;-70
2022/06/27 07:58:45;;;;;;;2.72;1.17;;;12.00;99.90;;;;;;4992369;28;20113;-70
2022/06/27 08:01:19;;;;;;;3.60;1.55;;;12.00;99.90;;;;;;4993602;28;20061;-70
2022/06/27 08:03:50;;;;;;;4.50;1.67;;;11.90;99.90;;;;;;4993880;28;20088;-69
2022/06/27 08:06:23;;;;;;;2.83;1.00;;;11.80;99.90;;;;;;4993782;28;20433;-69
2022/06/27 08:08:54;;;;;;;5.97;1.65;;;11.80;99.90;;;;;;4993733;28;20018;-70
2022/06/27 08:11:24;;;;;;;5.22;1.08;;;11.90;99.90;;;;;;4992575;28;20062;-69
2022/06/27 08:13:54;;;;;;;3.65;1.15;;;11.80;99.90;;;;;;4993602;28;20385;-71
2022/06/27 08:16:24;;;;;;;2.38;0.85;;;11.80;99.90;;;;;;4992286;28;20391;-70
2022/06/27 08:18:52;;;;;;;3.73;0.97;;;11.70;99.90;;;;;;4993565;28;20018;-70
2022/06/27 08:21:24;;;;;;;5.05;1.23;;;11.70;99.90;;;;;;4991042;28;20395;-69
2022/06/27 08:23:53;;;;;;;2.20;0.90;;;11.70;99.90;;;;;;4993585;28;20033;-70
2022/06/27 08:26:22;;;;;;;3.03;1.50;;;11.80;99.90;;;;;;4993656;28;20026;-70
2022/06/27 08:28:54;;;;;;;4.32;1.30;;;11.80;99.90;;;;;;4993389;28;20026;-70
2022/06/27 08:31:22;;;;;;;8.95;1.88;;;11.80;99.90;;;;;;4993421;28;20029;-69
2022/06/27 08:33:51;;;;;;;4.47;1.35;;;11.80;99.90;;;;;;4991960;28;20026;-69
2022/06/27 08:36:20;;;;;;;4.25;1.35;;;11.70;99.90;;;;;;4993197;28;20026;-68
2022/06/27 08:38:50;;;;;;;3.88;1.50;;;11.70;99.90;;;;;;4992238;28;20107;-68
2022/06/27 08:41:22;;;;;;;4.00;1.35;;;11.60;99.90;;;;;;4993386;28;20105;-68
2022/06/27 08:44:00;;;;;;;2.72;1.27;;;11.40;99.90;;;;;;4992238;28;20048;-71
2022/06/27 08:46:29;;;;;;;4.70;1.60;;;11.30;99.90;;;;;;4991982;28;20030;-69
2022/06/27 08:48:57;;;;;;;3.38;1.38;;;11.10;99.90;;;;;;4993293;28;20031;-70
2022/06/27 08:51:26;;;;;;;4.63;2.30;;;11.00;99.90;;;;;;4991573;28;20036;-70
2022/06/27 08:53:54;;;;;;;6.18;2.05;;;11.00;99.90;;;;;;4993243;28;20030;-68
2022/06/27 08:56:24;;;;;;;6.38;2.13;;;10.90;99.90;;;;;;4993142;28;20072;-69
2022/06/27 08:58:52;;;;;;;4.40;1.90;;;10.90;99.90;;;;;;4993188;28;20386;-69
2022/06/27 09:01:26;;;;;;;2.60;1.45;;;10.90;99.90;;;;;;4992879;28;20465;-68
2022/06/27 09:04:02;;;;;;;4.03;1.10;;;10.80;99.90;;;;;;4991947;28;20076;-70
2022/06/27 09:06:50;;;;;;;4.43;1.35;;;10.80;99.90;;;;;;4993219;28;20417;-70
2022/06/27 09:09:17;;;;;;;4.15;1.30;;;10.80;99.90;;;;;;4980054;28;20045;-69
2022/06/27 09:11:49;;;;;;;5.15;1.52;;;10.70;99.90;;;;;;4993380;28;20475;-69
2022/06/27 09:14:42;;;;;;;5.00;1.60;;;10.80;99.90;;;;;;4991954;28;20022;-69
2022/06/27 09:17:15;;;;;;;4.63;1.42;;;10.60;99.90;;;;;;4991789;28;20022;-69
2022/06/27 09:19:53;;;;;;;2.72;1.30;;;10.60;99.90;;;;;;4993032;28;20084;-69
2022/06/27 09:22:24;;;;;;;5.13;1.00;;;10.70;99.90;;;;;;4992939;28;20027;-70
2022/06/27 09:25:06;;;;;;;3.35;1.35;;;10.70;99.90;;;;;;4993268;28;20027;-69
2022/06/27 09:27:46;;;;;;;4.03;1.25;;;10.70;99.90;;;;;;4991579;28;20072;-70
2022/06/27 09:30:22;;;;;;;3.78;1.25;;;10.70;99.90;;;;;;4992964;28;20065;-70
2022/06/27 09:32:53;;;;;;;3.33;0.90;;;10.60;99.90;;;;;;4993404;28;20026;-70
2022/06/27 09:35:34;;;;;;;4.05;1.48;;;10.70;99.90;;;;;;4995276;28;20029;-70
2022/06/27 09:38:02;;;;;;;;;;;10.70;99.90;;;;;;4996701;28;20098;-71
2022/06/27 09:40:33;;;;;;;3.33;1.42;;;10.90;99.90;;;;;;4994855;28;19906;-71
2022/06/27 09:43:00;;;;;;;;;;;10.90;99.90;;;;;;4996760;28;20050;-71
2022/06/27 09:45:29;;;;;;;4.40;1.10;;;10.90;99.90;;;;;;4994835;28;19906;-71
2022/06/27 09:48:04;;;;;;;2.97;1.25;;;10.90;99.90;;;;;;4996258;28;20028;-71
2022/06/27 09:50:34;;;;;;;5.43;1.75;;;10.90;99.90;;;;;;4996060;28;20030;-71
2022/06/27 09:53:03;;;;;;;4.80;1.80;;;10.90;99.90;;;;;;4996358;28;20470;-72
2022/06/27 09:55:30;;;;;;;2.85;1.20;;;10.90;99.90;;;;;;4995851;28;20382;-72
2022/06/27 09:58:00;;;;;;;5.72;1.55;;;10.90;99.90;;;;;;4996000;28;20091;-71
2022/06/27 10:00:28;;;;;;;4.22;1.20;;;10.90;99.90;;;;;;4994203;28;20047;-71
2022/06/27 10:02:57;;;;;;;2.55;1.33;;;10.90;99.90;;;;;;4995699;28;20037;-71
2022/06/27 10:05:24;;;;;;;3.80;1.10;;;10.90;99.90;;;;;;4995837;28;20540;-72
2022/06/27 10:07:59;;;;;;;3.63;1.20;;;10.90;99.90;;;;;;4994324;28;20108;-71
2022/06/27 10:10:53;;;;;;;4.45;1.60;;;10.90;99.90;;;;;;4995752;28;20037;-71
2022/06/27 10:13:20;;;;;;;3.65;1.10;;;10.90;99.90;;;;;;4994156;28;20153;-71
2022/06/27 10:15:49;;;;;;;3.55;1.45;;;10.90;99.90;;;;;;4995489;28;20030;-70
2022/06/27 10:18:17;;;;;;;4.50;1.10;;;11.00;99.90;;;;;;4994094;28;20034;-70
2022/06/27 10:20:47;;;;;;;4.45;1.50;;;10.90;99.90;;;;;;4996042;28;20023;-69
2022/06/27 10:23:14;;;;;;;5.90;1.50;;;10.70;99.90;;;;;;4995444;28;20026;-70
2022/06/27 10:25:44;;;;;;;3.78;1.70;;;10.50;99.90;;;;;;4993937;28;20033;-70
2022/06/27 10:28:12;;;;;;;7.30;2.00;;;10.40;99.90;;;;;;4995403;28;20022;-70
2022/06/27 10:30:51;;;;;;;5.18;1.80;;;10.30;99.90;;;;;;4995280;28;20466;-70
2022/06/27 10:33:21;;;;;;;5.15;1.27;;;10.20;99.90;;;;;;4995324;28;20061;-69
2022/06/27 10:35:59;;;;;;;5.30;1.70;;;10.10;99.90;;;;;;4995302;28;20061;-71
2022/06/27 10:38:38;;;;;;;6.18;1.52;;;10.00;99.90;;;;;;4993831;28;20034;-70
2022/06/27 10:41:10;;;;;;;7.53;1.92;;;10.10;99.90;;;;;;4995239;28;20116;-71
2022/06/27 10:43:42;;;;;;;12.00;3.08;;;10.10;99.90;;;;;;4992753;28;20027;-70
2022/06/27 10:46:13;;;;;;;5.90;2.00;;;10.20;99.90;;;;;;4995151;28;20585;-71
2022/06/27 10:48:44;;;;;;;5.85;1.30;;;10.30;99.90;;;;;;4993603;28;20104;-70
2022/06/27 10:51:27;;;;;;;3.58;0.90;;;10.30;99.90;;;;;;4993415;28;20037;-71
2022/06/27 10:54:06;;;;;;;4.68;1.13;;;10.30;99.90;;;;;;4994972;28;20494;-71
2022/06/27 10:56:44;;;;;;;6.32;1.25;;;10.40;99.90;;;;;;4994808;28;20026;-71
2022/06/27 10:59:14;;;;;;;3.35;1.38;;;10.30;99.90;;;;;;4994995;28;20092;-71
2022/06/27 11:01:43;;;;;;;3.17;1.13;;;10.40;99.90;;;;;;4993117;28;20124;-70
2022/06/27 11:04:27;;;;;;;5.38;1.80;;;10.40;99.90;;;;;;4994690;28;20027;-70
2022/06/27 11:06:57;;;;;;;4.35;1.27;;;10.30;99.90;;;;;;4994643;28;20489;-70
2022/06/27 11:09:44;;;;;;;8.20;1.17;;;10.30;99.90;;;;;;4993292;28;20541;-71
2022/06/27 11:12:18;;;;;;;3.55;1.20;;;10.30;99.90;;;;;;4994575;28;20074;-70
2022/06/27 11:14:51;;;;;;;6.65;1.10;;;10.20;99.90;;;;;;4994485;28;20034;-71
2022/06/27 11:17:39;;;;;;;4.75;1.20;;;10.20;99.90;;;;;;4994711;28;20382;-71
2022/06/27 11:20:25;;;;;;;5.47;1.00;;;10.20;99.90;;;;;;4994379;28;20022;-71
2022/06/27 11:23:00;;;;;;;6.28;1.23;;;10.20;99.90;;;;;;4994324;28;20050;-70
2022/06/27 11:25:29;;;;;;;4.20;1.15;;;10.20;99.90;;;;;;4994204;28;20026;-72
2022/06/27 11:33:34;;;;;;;6.45;1.73;;;10.30;99.90;;;;;;4994446;28;20030;-71
2022/06/27 11:36:01;;;;;;;3.55;1.33;;;10.20;99.90;;;;;;4992837;28;20076;-71
2022/06/27 11:38:32;;;;;;;4.65;1.20;;;10.10;99.90;;;;;;4994662;28;20018;-72
2022/06/27 11:41:01;;;;;;;4.82;1.40;;;10.00;99.90;;;;;;4994146;28;20022;-71
2022/06/27 11:43:53;;;;;;;8.35;1.60;;;10.00;99.90;;;;;;4994042;28;20058;-72
2022/06/27 11:46:35;;;;;;;5.47;1.20;;;10.00;99.90;;;;;;4994031;28;20034;-72
2022/06/27 11:49:39;;;;;;;3.85;1.13;;;9.90;99.90;;;;;;4992625;28;20029;-71
2022/06/27 11:52:12;;;;;;;3.85;1.92;;;9.80;99.90;;;;;;4993535;28;20481;-71
2022/06/27 11:54:44;;;;;;;3.13;1.02;;;9.60;99.90;;;;;;4993623;28;20390;-71
2022/06/27 11:57:26;;;;;;;6.20;2.10;;;9.50;99.90;;;;;;4992451;28;20023;-72
2022/06/27 11:59:56;;;;;;;7.10;1.63;;;9.50;99.90;;;;;;4992274;28;20113;-72
2022/06/27 12:02:34;;;;;;;3.90;1.40;;;9.40;99.90;;;;;;4993856;28;20026;-72
2022/06/27 12:05:11;;;;;;;3.85;1.40;;;9.30;99.90;;;;;;4993676;28;20030;-72
2022/06/27 12:08:01;;;;;;;3.75;1.40;;;9.30;99.90;;;;;;4992300;28;20157;-72
2022/06/27 12:11:17;;;;;;;4.68;1.50;;;9.40;99.90;;;;;;4992283;28;20035;-72
2022/06/27 12:13:45;;;;;;;6.43;1.92;;;9.40;99.90;;;;;;4993613;28;20034;-72
2022/06/27 12:16:15;;;;;;;4.07;1.45;;;9.50;99.90;;;;;;4993645;28;20030;-72
2022/06/27 12:18:51;;;;;;;4.73;2.07;;;9.50;99.90;;;;;;4992241;28;20061;-72
2022/06/27 12:21:19;;;;;;;4.88;1.25;;;9.50;99.90;;;;;;4992567;28;20023;-72
2022/06/27 12:23:48;;;;;;;6.75;1.95;;;9.40;99.90;;;;;;4992132;28;20027;-72
2022/06/27 12:26:16;;;;;;;4.43;1.80;;;9.30;99.90;;;;;;4993842;28;20042;-72
2022/06/27 12:28:43;;;;;;;6.07;1.98;;;9.20;99.90;;;;;;4993327;28;20102;-72
2022/06/27 12:31:11;;;;;;;4.88;1.85;;;9.10;99.90;;;;;;4993371;28;20164;-72
2022/06/27 12:33:38;;;;;;;4.57;1.80;;;9.00;99.90;;;;;;4993393;28;20387;-72
2022/06/27 12:36:07;;;;;;;6.47;1.80;;;8.90;99.90;;;;;;4993378;28;20024;-72
2022/06/27 12:38:34;;;;;;;5.80;1.65;;;8.90;99.90;;;;;;4991973;28;20027;-72
2022/06/27 12:41:15;;;;;;;4.03;1.55;;;8.90;99.90;;;;;;4993369;28;20022;-72
2022/06/27 12:43:43;;;;;;;3.97;1.70;;;8.90;99.90;;;;;;4993653;28;20018;-72
2022/06/27 12:46:12;;;;;;;5.78;1.75;;;8.90;99.90;;;;;;4993443;28;20037;-72
2022/06/27 12:48:40;;;;;;;10.52;3.45;;;8.90;99.90;;;;;;4993236;28;20026;-72
2022/06/27 12:51:08;;;;;;;5.65;1.95;;;8.90;99.90;;;;;;4993176;28;20033;-72
2022/06/27 12:53:36;;;;;;;4.78;2.20;;;8.80;99.90;;;;;;4993201;28;20524;-72
2022/06/27 12:56:04;;;;;;;6.25;2.05;;;8.80;99.90;;;;;;4993223;28;20101;-72
2022/06/27 12:58:33;;;;;;;4.45;1.80;;;8.70;99.90;;;;;;4993021;28;20018;-73
2022/06/27 13:01:02;;;;;;;7.60;1.65;;;8.60;99.90;;;;;;4992898;28;20042;-72
2022/06/27 13:03:29;;;;;;;6.43;1.90;;;8.60;99.90;;;;;;4991809;28;20386;-72
2022/06/27 13:05:57;;;;;;;3.53;2.10;;;8.60;99.90;;;;;;4991753;28;20066;-73
2022/06/27 13:08:24;;;;;;;4.65;1.73;;;8.60;99.90;;;;;;4996130;28;20077;-73
2022/06/27 13:10:52;;;;;;;5.32;2.03;;;8.60;99.90;;;;;;4995370;28;20066;-72